Time;durP1;ratioP1;P1;durP2;ratioP2;P2;SDS_P1;SDS_P2;PMS_P1;PMS_P2;Temp;Humidity;BMP_temperature;BMP_pressure;BME280_temperature;BME280_humidity;BME280_pressure;Samples;Min_cycle;Max_cycle;Signal;HPM_P1;HPM_P2
2021/12/24 00:01:07;;;;;;;9.27;6.82;;;10.10;95.50;;;;;;5095962;28;20074;-66
2021/12/24 00:03:35;;;;;;;9.63;5.82;;;10.20;95.60;;;;;;5106658;28;20569;-65
2021/12/24 00:06:05;;;;;;;7.50;4.97;;;10.20;95.60;;;;;;5078242;28;20114;-66
2021/12/24 00:08:34;;;;;;;9.15;5.90;;;10.20;95.70;;;;;;5077347;28;20031;-65
2021/12/24 00:11:02;;;;;;;8.35;5.25;;;10.20;95.80;;;;;;5077534;28;20520;-65
2021/12/24 00:13:37;;;;;;;8.98;6.00;;;10.30;95.90;;;;;;5103761;27;20497;-66
2021/12/24 00:18:43;;;;;;;12.25;6.47;;;10.30;96.10;;;;;;5097407;27;20032;-65
2021/12/24 00:37:39;;;;;;;7.47;4.40;;;10.40;96.60;;;;;;5103701;28;20032;-65
2021/12/24 00:42:36;;;;;;;7.55;5.07;;;10.40;96.70;;;;;;5104079;28;20043;-65
2021/12/24 00:45:04;;;;;;;6.03;4.80;;;10.40;96.80;;;;;;5079560;28;20043;-65
2021/12/24 00:47:32;;;;;;;6.93;4.35;;;10.50;96.90;;;;;;5106232;27;20081;-65
2021/12/24 00:50:06;;;;;;;5.57;4.20;;;10.50;97.00;;;;;;5077389;28;20044;-65
2021/12/24 00:55:15;;;;;;;8.15;6.07;;;10.50;97.20;;;;;;5112625;28;20042;-65
2021/12/24 00:57:46;;;;;;;8.75;5.63;;;10.30;97.50;;;;;;5079081;28;20393;-66
2021/12/24 01:00:28;;;;;;;11.68;6.03;;;10.30;97.70;;;;;;5074507;28;20036;-66
2021/12/24 01:02:58;;;;;;;8.68;5.47;;;10.30;97.90;;;;;;5112411;28;20043;-65
2021/12/24 01:05:29;;;;;;;7.28;5.20;;;10.20;98.20;;;;;;5092325;28;20047;-65
2021/12/24 01:07:58;;;;;;;9.63;6.20;;;10.20;98.30;;;;;;5083412;28;20049;-65
2021/12/24 01:10:35;;;;;;;10.65;5.57;;;10.20;98.40;;;;;;5073639;28;20047;-65
2021/12/24 01:13:03;;;;;;;7.97;5.05;;;10.30;98.60;;;;;;5095983;28;20063;-65
2021/12/24 01:15:34;;;;;;;5.90;3.80;;;10.30;98.60;;;;;;5095969;28;20032;-65
2021/12/24 01:18:11;;;;;;;6.25;4.00;;;10.40;98.70;;;;;;5108067;28;20051;-68
2021/12/24 01:20:49;;;;;;;5.32;3.45;;;10.40;98.80;;;;;;5057668;28;20105;-65
2021/12/24 01:26:32;;;;;;;12.65;3.90;;;10.50;98.90;;;;;;5086263;28;20055;-65
2021/12/24 01:29:36;;;;;;;7.57;5.20;;;10.50;99.00;;;;;;5052061;28;20143;-65
2021/12/24 01:40:25;;;;;;;5.97;4.75;;;10.50;99.30;;;;;;5091504;28;20044;-68
2021/12/24 01:42:54;;;;;;;5.65;4.20;;;10.50;99.40;;;;;;5092236;27;20031;-65
2021/12/24 01:45:35;;;;;;;7.00;4.68;;;10.50;99.40;;;;;;5075881;28;20118;-65
2021/12/24 01:48:06;;;;;;;7.68;4.25;;;10.50;99.60;;;;;;5093730;28;20081;-65
2021/12/24 01:50:37;;;;;;;5.80;3.90;;;10.50;99.60;;;;;;5068310;28;20368;-66
2021/12/24 01:53:07;;;;;;;6.93;5.03;;;10.50;99.70;;;;;;5060161;28;20044;-65
2021/12/24 01:55:38;;;;;;;7.15;4.07;;;10.50;99.80;;;;;;5107837;28;20132;-67
2021/12/24 01:58:06;;;;;;;7.47;4.40;;;10.50;99.80;;;;;;5061568;28;20493;-65
2021/12/24 02:00:41;;;;;;;6.30;4.05;;;10.50;99.90;;;;;;5073983;27;20118;-65
2021/12/24 02:03:11;;;;;;;5.80;3.50;;;10.50;99.90;;;;;;5081494;28;20045;-65
2021/12/24 02:05:41;;;;;;;6.75;4.47;;;10.50;99.90;;;;;;5102526;28;20046;-65
2021/12/24 02:08:10;;;;;;;6.43;4.30;;;10.50;99.90;;;;;;5095676;28;20058;-65
2021/12/24 02:10:38;;;;;;;9.70;4.60;;;10.50;99.90;;;;;;5095587;28;20497;-65
2021/12/24 02:13:07;;;;;;;5.15;3.30;;;10.50;99.90;;;;;;5094496;28;20473;-65
2021/12/24 02:28:17;;;;;;;5.60;4.53;;;10.60;99.90;;;;;;5091592;28;20036;-68
2021/12/24 02:29:32;;;;;;;6.78;4.88;;;10.50;99.90;;;;;;5110342;28;20085;-66
2021/12/24 02:31:59;;;;;;;7.30;5.32;;;10.50;99.90;;;;;;5075336;28;20039;-65
2021/12/24 02:34:27;;;;;;;7.93;4.57;;;10.50;99.90;;;;;;5100263;27;20035;-65
2021/12/24 02:36:54;;;;;;;6.25;5.00;;;10.50;99.90;;;;;;5096135;27;20043;-65
2021/12/24 02:39:23;;;;;;;8.30;4.85;;;10.50;99.90;;;;;;5092496;28;20529;-65
2021/12/24 02:41:50;;;;;;;9.13;5.07;;;10.50;99.90;;;;;;5089098;28;20051;-67
2021/12/24 02:44:19;;;;;;;10.85;4.90;;;10.50;99.90;;;;;;5072337;28;20115;-66
2021/12/24 02:54:55;;;;;;;6.88;4.53;;;10.60;99.90;;;;;;5086373;28;20492;-65
2021/12/24 02:57:27;;;;;;;9.15;4.90;;;10.60;99.90;;;;;;5098937;28;20064;-64
2021/12/24 03:00:29;;;;;;;7.38;5.55;;;10.60;99.90;;;;;;5107515;28;20075;-64
2021/12/24 03:02:49;;;;;;;6.68;4.18;;;10.60;99.90;;;;;;5109159;28;20409;-65
2021/12/24 03:05:19;;;;;;;6.82;4.35;;;10.60;99.90;;;;;;5089617;28;20039;-66
2021/12/24 03:07:47;;;;;;;8.90;4.72;;;10.70;99.90;;;;;;5097403;28;20031;-66
2021/12/24 03:10:18;;;;;;;8.18;4.57;;;10.60;99.90;;;;;;5084902;28;20043;-65
2021/12/24 03:12:50;;;;;;;9.20;5.03;;;10.60;99.90;;;;;;5081634;28;20113;-66
2021/12/24 03:15:22;;;;;;;9.15;5.75;;;10.70;99.90;;;;;;5079676;28;20093;-65
2021/12/24 03:17:54;;;;;;;6.97;4.65;;;10.60;99.90;;;;;;5097301;28;20032;-65
2021/12/24 03:20:22;;;;;;;7.10;4.47;;;10.60;99.90;;;;;;5111428;28;20040;-65
2021/12/24 03:25:30;;;;;;;6.53;5.13;;;10.60;99.90;;;;;;5091922;28;20050;-66
2021/12/24 03:27:59;;;;;;;8.77;4.80;;;10.50;99.90;;;;;;5079694;28;20051;-65
2021/12/24 03:30:28;;;;;;;6.43;4.25;;;10.50;99.90;;;;;;5077489;28;20085;-65
2021/12/24 03:32:55;;;;;;;7.97;4.10;;;10.60;99.90;;;;;;5073133;28;20123;-65
2021/12/24 03:35:23;;;;;;;7.97;4.65;;;10.50;99.90;;;;;;5076326;28;20497;-67
2021/12/24 03:37:51;;;;;;;7.70;4.85;;;10.50;99.90;;;;;;5073438;28;20405;-68
2021/12/24 03:40:19;;;;;;;6.78;4.00;;;10.50;99.90;;;;;;5099188;28;20048;-65
2021/12/24 03:42:47;;;;;;;8.63;5.22;;;10.50;99.90;;;;;;5052910;28;20043;-65
2021/12/24 03:45:26;;;;;;;7.93;5.05;;;10.50;99.90;;;;;;5090679;28;20036;-65
2021/12/24 03:47:59;;;;;;;7.03;4.80;;;10.60;99.90;;;;;;5061792;28;20041;-65
2021/12/24 03:50:42;;;;;;;6.57;4.75;;;10.60;99.90;;;;;;5101071;28;20040;-65
2021/12/24 03:55:56;;;;;;;7.07;5.30;;;10.60;99.90;;;;;;5084259;28;20501;-65
2021/12/24 03:58:27;;;;;;;6.25;4.57;;;10.60;99.90;;;;;;5061847;28;20135;-64
2021/12/24 04:01:30;;;;;;;7.82;4.50;;;10.60;99.90;;;;;;5010352;28;20041;-65
2021/12/24 04:04:15;;;;;;;9.15;5.22;;;10.60;99.90;;;;;;5107177;28;20142;-64
2021/12/24 04:07:09;;;;;;;7.78;4.20;;;10.60;99.90;;;;;;5057844;28;20044;-65
2021/12/24 04:10:03;;;;;;;9.38;4.68;;;10.60;99.90;;;;;;5109493;28;20036;-65
2021/12/24 04:12:49;;;;;;;7.95;4.65;;;10.60;99.90;;;;;;5102203;28;20038;-65
2021/12/24 04:15:17;;;;;;;7.70;5.25;;;10.60;99.90;;;;;;5099084;28;20043;-65
2021/12/24 04:17:45;;;;;;;7.45;4.85;;;10.60;99.90;;;;;;5098926;28;20589;-65
2021/12/24 04:25:30;;;;;;;5.93;3.83;;;10.60;99.90;;;;;;5082019;28;20098;-65
2021/12/24 04:27:59;;;;;;;5.75;4.10;;;10.60;99.90;;;;;;5099197;28;20043;-65
2021/12/24 04:30:35;;;;;;;7.65;4.78;;;10.70;99.90;;;;;;5082217;28;20051;-65
2021/12/24 04:33:10;;;;;;;;;;;10.70;99.90;;;;;;5082230;28;20116;-66
2021/12/24 04:35:55;;;;;;;9.00;4.90;;;10.70;99.90;;;;;;5098744;28;19920;-65
2021/12/24 04:38:45;;;;;;;8.82;4.15;;;10.70;99.90;;;;;;5081852;28;20031;-65
2021/12/24 05:03:37;;;;;;;8.20;5.07;;;10.50;99.90;;;;;;5081522;28;20047;-65
2021/12/24 05:06:27;;;;;;;6.70;4.72;;;10.50;99.90;;;;;;5065093;28;20274;-65
2021/12/24 05:08:58;;;;;;;7.43;5.45;;;10.50;99.90;;;;;;5081276;28;20075;-65
2021/12/24 05:11:26;;;;;;;9.73;6.00;;;10.50;99.90;;;;;;5081158;28;20048;-65
2021/12/24 05:13:55;;;;;;;12.60;5.72;;;10.50;99.90;;;;;;5097881;28;20118;-65
2021/12/24 05:17:03;;;;;;;7.73;4.93;;;10.40;99.90;;;;;;5098308;28;20051;-65
2021/12/24 05:22:49;;;;;;;8.38;5.35;;;10.50;99.90;;;;;;5098034;28;20047;-65
2021/12/24 05:25:19;;;;;;;6.18;4.70;;;10.40;99.90;;;;;;5081068;28;20047;-65
2021/12/24 05:27:47;;;;;;;12.52;8.60;;;10.40;99.90;;;;;;5080888;28;20071;-64
2021/12/24 05:30:15;;;;;;;9.68;6.97;;;10.40;99.90;;;;;;5097644;28;20043;-65
2021/12/24 05:32:43;;;;;;;8.07;5.20;;;10.40;99.90;;;;;;5097820;28;20128;-64
2021/12/24 05:35:11;;;;;;;8.65;6.10;;;10.40;99.90;;;;;;5097836;28;20071;-65
2021/12/24 05:37:38;;;;;;;6.70;4.82;;;10.40;99.90;;;;;;5080833;28;20043;-64
2021/12/24 05:40:08;;;;;;;6.75;5.28;;;10.30;99.90;;;;;;5080602;28;20139;-64
2021/12/24 05:42:35;;;;;;;7.60;5.97;;;10.30;99.90;;;;;;5080732;28;20047;-65
2021/12/24 05:45:06;;;;;;;10.85;6.93;;;10.30;99.90;;;;;;5080906;28;20039;-65
2021/12/24 05:48:05;;;;;;;8.50;6.90;;;10.30;99.90;;;;;;5115374;28;20055;-65
2021/12/24 05:50:33;;;;;;;9.82;6.43;;;10.30;99.90;;;;;;5080242;28;20485;-65
2021/12/24 05:53:21;;;;;;;8.15;5.18;;;10.30;99.90;;;;;;5101006;28;20052;-65
2021/12/24 05:56:09;;;;;;;11.10;6.43;;;10.30;99.90;;;;;;5096672;28;20119;-66
2021/12/24 05:58:40;;;;;;;8.43;5.45;;;10.30;99.90;;;;;;5097204;28;20092;-65
2021/12/24 06:01:08;;;;;;;10.40;6.10;;;10.20;99.90;;;;;;5080234;28;20423;-65
2021/12/24 06:03:44;;;;;;;;;;;10.20;99.90;;;;;;5080442;28;20055;-65
2021/12/24 06:06:12;;;;;;;9.02;5.80;;;10.20;99.90;;;;;;5114879;28;19973;-65
2021/12/24 06:08:40;;;;;;;8.25;5.88;;;10.20;99.90;;;;;;5096968;28;20042;-64
2021/12/24 06:11:07;;;;;;;7.50;4.85;;;10.10;99.90;;;;;;5096991;28;20044;-65
2021/12/24 06:13:36;;;;;;;10.50;6.15;;;10.10;99.90;;;;;;5097008;28;20047;-65
2021/12/24 06:16:06;;;;;;;14.52;9.38;;;10.10;99.90;;;;;;5096810;28;20059;-64
2021/12/24 06:18:37;;;;;;;19.85;10.98;;;10.10;99.90;;;;;;5096640;28;20039;-65
2021/12/24 06:21:05;;;;;;;24.02;12.13;;;10.10;99.90;;;;;;5097036;28;20066;-64
2021/12/24 06:23:34;;;;;;;26.20;12.63;;;10.10;99.90;;;;;;5096722;28;20089;-64
2021/12/24 06:26:03;;;;;;;21.33;11.02;;;10.10;99.90;;;;;;5096990;28;20035;-65
2021/12/24 06:28:34;;;;;;;11.45;7.53;;;10.10;99.90;;;;;;5096418;28;20459;-65
2021/12/24 06:31:02;;;;;;;19.95;8.55;;;10.10;99.90;;;;;;5079856;28;20050;-65
2021/12/24 06:33:30;;;;;;;10.80;6.03;;;10.20;99.90;;;;;;5114890;28;20047;-65
2021/12/24 06:35:58;;;;;;;8.20;5.40;;;10.20;99.90;;;;;;5079523;28;20047;-64
2021/12/24 06:38:26;;;;;;;6.75;5.15;;;10.20;99.90;;;;;;5095947;28;20062;-65
2021/12/24 06:40:54;;;;;;;7.10;4.22;;;10.20;99.90;;;;;;5096844;28;20047;-65
2021/12/24 06:43:21;;;;;;;8.57;5.25;;;10.20;99.90;;;;;;5096534;28;20070;-66
2021/12/24 06:45:50;;;;;;;6.70;4.85;;;10.20;99.90;;;;;;5096802;28;20542;-65
2021/12/24 06:48:18;;;;;;;12.10;5.30;;;10.20;99.90;;;;;;5079679;28;20428;-65
2021/12/24 06:50:45;;;;;;;10.70;5.05;;;10.20;99.90;;;;;;5079511;28;20051;-65
2021/12/24 06:53:13;;;;;;;9.35;5.93;;;10.30;99.90;;;;;;5096151;28;20039;-65
2021/12/24 06:55:42;;;;;;;13.15;5.18;;;10.30;99.90;;;;;;5079576;28;20596;-65
2021/12/24 06:58:11;;;;;;;11.48;5.03;;;10.30;99.90;;;;;;5095945;28;20056;-65
2021/12/24 07:00:40;;;;;;;12.38;5.53;;;10.30;99.90;;;;;;5096014;28;20547;-65
2021/12/24 07:03:09;;;;;;;32.53;5.47;;;10.30;99.90;;;;;;5096227;28;20050;-65
2021/12/24 07:05:37;;;;;;;8.55;4.93;;;10.30;99.90;;;;;;5114138;28;20036;-65
2021/12/24 07:08:05;;;;;;;9.02;4.97;;;10.40;99.90;;;;;;5079193;28;20051;-65
2021/12/24 07:10:33;;;;;;;8.60;4.78;;;10.40;99.90;;;;;;5079217;28;20058;-65
2021/12/24 07:13:00;;;;;;;8.00;4.47;;;10.50;99.90;;;;;;5078684;28;20047;-65
2021/12/24 07:15:28;;;;;;;9.48;5.70;;;10.50;99.90;;;;;;5113854;28;20493;-65
2021/12/24 07:17:55;;;;;;;6.40;5.05;;;10.60;99.90;;;;;;5113809;28;20043;-64
2021/12/24 07:20:23;;;;;;;7.15;4.78;;;10.70;99.90;;;;;;5113619;28;20432;-65
2021/12/24 07:22:50;;;;;;;6.53;4.78;;;10.60;99.90;;;;;;5113973;28;20106;-65
2021/12/24 07:25:18;;;;;;;6.90;4.05;;;10.70;99.90;;;;;;5079021;28;20047;-65
2021/12/24 07:27:45;;;;;;;7.25;4.15;;;10.80;99.90;;;;;;5113701;28;20528;-65
2021/12/24 07:30:14;;;;;;;7.95;3.15;;;11.00;99.90;;;;;;5095521;28;20104;-65
2021/12/24 07:32:42;;;;;;;6.43;3.92;;;12.20;99.90;;;;;;5078870;28;20436;-65
2021/12/24 07:35:10;;;;;;;5.68;3.60;;;14.00;99.90;;;;;;5078888;28;20450;-65
2021/12/24 07:37:39;;;;;;;6.10;4.07;;;15.60;98.50;;;;;;5113570;28;20051;-65
2021/12/24 07:40:08;;;;;;;6.95;3.20;;;17.50;95.50;;;;;;5048309;28;20131;-65
2021/12/24 07:42:37;;;;;;;5.85;4.25;;;19.20;92.90;;;;;;5094804;28;20532;-65
2021/12/24 07:45:07;;;;;;;5.63;3.65;;;20.60;90.90;;;;;;5092093;28;20036;-65
2021/12/24 07:47:39;;;;;;;9.18;3.30;;;21.80;87.70;;;;;;5096481;28;20040;-66
2021/12/24 07:52:57;;;;;;;9.13;3.67;;;22.20;85.20;;;;;;5103953;28;20123;-65
2021/12/24 07:55:24;;;;;;;5.13;3.72;;;22.50;84.30;;;;;;5082547;28;20167;-65
2021/12/24 07:57:53;;;;;;;7.78;4.90;;;21.90;84.30;;;;;;5103506;28;20108;-65
2021/12/24 08:00:26;;;;;;;10.43;3.75;;;21.10;85.60;;;;;;5090005;27;20036;-70
2021/12/24 08:02:54;;;;;;;7.78;4.55;;;19.70;88.20;;;;;;5102987;28;20390;-65
2021/12/24 08:05:25;;;;;;;7.97;5.00;;;18.60;90.40;;;;;;5097898;28;20038;-65
2021/12/24 08:07:54;;;;;;;9.13;4.10;;;17.20;92.00;;;;;;5053518;28;20044;-65
2021/12/24 08:10:27;;;;;;;4.88;3.28;;;16.70;93.30;;;;;;5087845;28;20039;-66
2021/12/24 08:12:54;;;;;;;5.65;3.15;;;16.00;93.80;;;;;;5080644;28;20081;-65
2021/12/24 08:15:24;;;;;;;4.55;3.03;;;15.70;94.70;;;;;;5093680;28;20478;-67
2021/12/24 08:17:52;;;;;;;4.88;2.88;;;15.40;94.90;;;;;;5094661;28;20122;-66
2021/12/24 08:20:24;;;;;;;4.35;3.15;;;15.00;95.40;;;;;;5105715;28;20121;-65
2021/12/24 08:22:53;;;;;;;5.75;3.75;;;14.70;96.00;;;;;;5103257;27;20126;-65
2021/12/24 08:25:23;;;;;;;4.53;3.08;;;14.60;96.30;;;;;;5086117;28;20040;-64
2021/12/24 08:27:51;;;;;;;6.68;2.95;;;14.50;96.50;;;;;;5077781;28;20036;-64
2021/12/24 08:30:19;;;;;;;6.05;3.15;;;14.70;96.90;;;;;;5105020;28;20067;-65
2021/12/24 08:32:47;;;;;;;4.85;2.88;;;14.80;96.60;;;;;;5092685;28;20114;-64
2021/12/24 08:35:20;;;;;;;9.73;3.00;;;14.70;95.50;;;;;;5073385;28;20043;-67
2021/12/24 08:37:48;;;;;;;4.47;2.50;;;14.90;95.80;;;;;;5063038;28;20043;-66
2021/12/24 08:40:16;;;;;;;6.38;3.03;;;15.30;95.20;;;;;;5095124;28;20043;-65
2021/12/24 08:42:44;;;;;;;4.88;2.67;;;15.60;94.80;;;;;;5078597;28;20043;-66
2021/12/24 08:45:12;;;;;;;4.45;2.17;;;15.90;94.40;;;;;;5112162;28;20055;-67
2021/12/24 08:47:41;;;;;;;4.57;2.63;;;15.90;94.00;;;;;;5091244;28;20063;-66
2021/12/24 08:50:10;;;;;;;5.95;2.45;;;15.90;93.40;;;;;;5077812;28;20036;-66
2021/12/24 08:52:38;;;;;;;5.55;2.58;;;15.90;93.60;;;;;;5072300;28;20174;-66
2021/12/24 08:55:06;;;;;;;3.75;2.05;;;16.10;93.60;;;;;;5096036;28;20032;-68
2021/12/24 08:57:34;;;;;;;4.13;2.10;;;16.20;93.00;;;;;;5072017;28;20048;-66
2021/12/24 09:00:02;;;;;;;4.63;2.20;;;16.30;92.40;;;;;;5091345;28;20093;-66
2021/12/24 09:02:30;;;;;;;4.80;2.10;;;16.40;92.10;;;;;;5076532;28;20521;-67
2021/12/24 09:04:57;;;;;;;2.80;1.35;;;16.40;91.80;;;;;;5085848;28;20504;-65
2021/12/24 09:07:25;;;;;;;4.38;1.90;;;16.50;91.40;;;;;;5091856;28;20047;-65
2021/12/24 09:09:53;;;;;;;3.20;1.52;;;16.50;91.10;;;;;;5110902;28;20036;-65
2021/12/24 09:12:20;;;;;;;2.40;1.40;;;16.40;90.60;;;;;;5084466;28;20039;-65
2021/12/24 09:14:48;;;;;;;3.83;2.33;;;16.40;90.70;;;;;;5094464;28;20040;-65
2021/12/24 09:17:16;;;;;;;5.28;3.13;;;16.50;90.30;;;;;;5096186;28;20097;-66
2021/12/24 09:19:48;;;;;;;8.73;3.50;;;16.60;90.20;;;;;;5084859;27;20091;-64
2021/12/24 09:22:18;;;;;;;3.33;2.10;;;16.60;89.90;;;;;;5092127;27;20067;-68
2021/12/24 09:24:49;;;;;;;2.90;1.92;;;16.50;89.50;;;;;;5076319;28;20093;-68
2021/12/24 09:27:17;;;;;;;3.53;2.28;;;16.60;90.00;;;;;;5110892;27;20045;-65
2021/12/24 09:29:45;;;;;;;2.25;1.60;;;16.70;90.10;;;;;;5109453;28;20050;-67
2021/12/24 09:32:13;;;;;;;1.90;1.42;;;16.60;90.40;;;;;;5107903;28;20065;-66
2021/12/24 09:35:33;;;;;;;3.33;1.95;;;16.60;90.50;;;;;;5071223;28;20044;-69
2021/12/24 09:38:14;;;;;;;4.35;1.92;;;16.60;90.20;;;;;;5106925;28;20047;-66
2021/12/24 09:40:43;;;;;;;4.25;2.13;;;16.60;90.30;;;;;;5096156;28;20044;-66
2021/12/24 09:43:10;;;;;;;2.63;1.60;;;16.70;90.50;;;;;;5069015;28;20044;-67
2021/12/24 09:45:38;;;;;;;2.45;1.45;;;16.70;90.50;;;;;;5088026;28;20116;-71
2021/12/24 09:48:06;;;;;;;4.03;1.45;;;16.70;90.30;;;;;;5079799;28;20044;-68
2021/12/24 09:50:33;;;;;;;2.45;1.60;;;16.80;90.40;;;;;;5096818;28;20441;-68
2021/12/24 09:53:01;;;;;;;3.25;1.80;;;16.70;90.20;;;;;;5096810;28;20058;-69
2021/12/24 09:55:29;;;;;;;2.53;1.48;;;16.70;90.00;;;;;;5076682;28;20052;-69
2021/12/24 09:57:57;;;;;;;2.10;1.52;;;16.70;90.20;;;;;;5080246;28;20052;-67
2021/12/24 10:00:26;;;;;;;2.72;1.50;;;16.70;90.30;;;;;;5096897;28;20370;-69
2021/12/24 10:02:57;;;;;;;2.78;1.60;;;16.60;90.10;;;;;;5079525;28;20035;-68
2021/12/24 10:05:25;;;;;;;3.15;1.98;;;16.60;90.80;;;;;;5096445;28;20053;-70
2021/12/24 10:07:59;;;;;;;3.63;1.80;;;16.70;91.30;;;;;;5080030;28;20036;-68
2021/12/24 10:10:29;;;;;;;6.22;1.77;;;16.80;90.70;;;;;;5080104;28;20505;-68
2021/12/24 10:13:17;;;;;;;8.13;2.78;;;16.70;90.50;;;;;;5096934;28;20082;-68
2021/12/24 10:16:13;;;;;;;5.18;2.70;;;16.70;91.00;;;;;;5114773;28;20134;-69
2021/12/24 10:18:55;;;;;;;6.63;2.72;;;16.70;91.90;;;;;;5113364;28;20051;-69
2021/12/24 10:21:29;;;;;;;3.92;2.05;;;16.70;92.30;;;;;;5079563;28;20050;-69
2021/12/24 10:24:03;;;;;;;3.10;2.25;;;16.70;92.00;;;;;;5114785;28;20040;-69
2021/12/24 10:26:42;;;;;;;4.57;2.58;;;16.60;92.20;;;;;;5079944;28;20081;-68
2021/12/24 10:29:19;;;;;;;6.45;3.30;;;16.80;92.30;;;;;;5096447;28;20100;-69
2021/12/24 10:31:52;;;;;;;4.60;2.97;;;16.70;92.00;;;;;;5096333;28;20058;-68
2021/12/24 10:34:30;;;;;;;6.30;3.03;;;16.50;92.10;;;;;;5079461;28;20055;-69
2021/12/24 10:37:12;;;;;;;3.97;2.63;;;16.50;92.10;;;;;;5096384;28;20142;-68
2021/12/24 10:39:44;;;;;;;5.90;3.50;;;16.60;92.10;;;;;;5096162;28;20053;-69
2021/12/24 10:42:19;;;;;;;10.13;4.47;;;16.50;91.80;;;;;;5096400;28;20054;-69
2021/12/24 10:44:51;;;;;;;5.00;2.45;;;16.40;91.90;;;;;;5079625;28;20067;-69
2021/12/24 10:47:28;;;;;;;8.60;2.92;;;16.50;92.00;;;;;;5062647;28;20444;-69
2021/12/24 10:50:07;;;;;;;7.57;3.22;;;16.50;91.90;;;;;;5096176;28;20496;-69
2021/12/24 10:55:34;;;;;;;6.95;3.47;;;16.50;91.40;;;;;;5113848;28;20047;-69
2021/12/24 10:58:05;;;;;;;6.63;3.17;;;16.40;91.30;;;;;;5095850;28;20490;-69
2021/12/24 11:00:46;;;;;;;5.03;2.22;;;16.40;91.10;;;;;;5096416;28;20441;-68
2021/12/24 11:03:22;;;;;;;5.95;2.42;;;16.50;91.30;;;;;;5079003;28;20494;-68
2021/12/24 11:06:07;;;;;;;5.05;2.53;;;16.60;91.00;;;;;;5095777;28;20601;-68
2021/12/24 11:08:37;;;;;;;3.70;1.70;;;16.70;90.30;;;;;;5095889;28;20035;-68
2021/12/24 11:11:07;;;;;;;2.53;1.90;;;16.80;89.50;;;;;;5096020;28;20134;-68
2021/12/24 11:13:43;;;;;;;2.95;1.90;;;16.60;89.60;;;;;;5079511;28;20059;-69
2021/12/24 11:16:16;;;;;;;4.20;3.20;;;16.60;90.30;;;;;;5078131;28;20083;-69
2021/12/24 11:18:53;;;;;;;3.78;2.15;;;16.40;90.50;;;;;;5096213;28;20044;-69
2021/12/24 11:21:23;;;;;;;3.50;2.00;;;16.40;90.80;;;;;;5095809;28;20122;-69
2021/12/24 11:23:51;;;;;;;2.88;1.88;;;16.40;89.50;;;;;;5114025;28;20047;-69
2021/12/24 11:26:21;;;;;;;3.67;2.38;;;16.50;89.30;;;;;;5079053;28;20130;-69
2021/12/24 11:28:49;;;;;;;4.30;2.72;;;16.30;89.80;;;;;;5095947;28;20144;-68
2021/12/24 11:31:23;;;;;;;3.95;2.30;;;16.30;90.10;;;;;;5095831;28;20481;-68
2021/12/24 11:33:52;;;;;;;6.35;2.55;;;16.30;90.20;;;;;;5095837;28;20520;-68
2021/12/24 11:36:23;;;;;;;3.50;2.20;;;16.30;90.50;;;;;;5095676;28;20043;-68
2021/12/24 11:38:56;;;;;;;3.25;1.80;;;16.30;89.90;;;;;;5079074;28;20054;-68
2021/12/24 11:41:27;;;;;;;3.28;1.70;;;16.10;88.80;;;;;;5078945;28;20122;-68
2021/12/24 11:43:56;;;;;;;4.65;1.73;;;16.00;88.40;;;;;;5062086;28;20047;-68
2021/12/24 11:46:26;;;;;;;4.60;2.00;;;15.80;90.20;;;;;;5095715;28;20039;-68
2021/12/24 11:48:55;;;;;;;3.20;1.92;;;15.80;90.30;;;;;;5079226;28;20071;-68
2021/12/24 11:51:34;;;;;;;3.55;2.00;;;15.70;90.30;;;;;;5078971;28;20141;-68
2021/12/24 11:54:05;;;;;;;3.38;2.10;;;15.70;90.90;;;;;;5095945;28;20048;-67
2021/12/24 11:56:49;;;;;;;4.22;2.00;;;15.60;91.30;;;;;;5113571;28;20050;-68
2021/12/24 11:59:35;;;;;;;3.05;2.25;;;15.60;90.60;;;;;;5095446;28;20040;-69
2021/12/24 12:02:03;;;;;;;4.80;2.28;;;15.60;90.00;;;;;;5095329;28;20035;-68
2021/12/24 12:04:30;;;;;;;3.22;1.90;;;15.60;90.60;;;;;;5078676;28;20167;-68
2021/12/24 12:07:24;;;;;;;3.42;2.00;;;15.50;90.80;;;;;;5079007;28;20142;-68
2021/12/24 12:09:52;;;;;;;2.45;2.10;;;15.40;90.80;;;;;;5101733;28;20513;-68
2021/12/24 12:12:32;;;;;;;6.20;2.58;;;15.40;91.00;;;;;;5095576;28;20039;-69
2021/12/24 12:15:26;;;;;;;3.92;2.15;;;15.30;90.60;;;;;;5095636;28;20057;-69
2021/12/24 12:17:58;;;;;;;4.00;2.50;;;15.30;90.80;;;;;;5061761;28;20058;-69
2021/12/24 12:20:45;;;;;;;4.25;2.40;;;15.30;91.10;;;;;;5113601;28;20428;-68
2021/12/24 12:23:47;;;;;;;3.80;2.63;;;15.30;91.60;;;;;;5061597;28;20047;-70
2021/12/24 12:26:41;;;;;;;4.18;2.80;;;15.20;91.40;;;;;;5095019;28;20426;-67
2021/12/24 12:29:27;;;;;;;4.70;3.25;;;15.30;91.40;;;;;;5078899;28;20383;-68
2021/12/24 12:32:12;;;;;;;3.17;2.10;;;15.40;90.20;;;;;;5087109;28;20498;-68
2021/12/24 12:34:43;;;;;;;3.75;2.53;;;15.30;90.30;;;;;;5096767;28;20037;-68
2021/12/24 12:37:14;;;;;;;3.85;2.75;;;15.20;90.40;;;;;;5098986;28;20094;-69
2021/12/24 12:39:43;;;;;;;3.65;2.55;;;15.30;90.50;;;;;;5081905;28;20493;-69
2021/12/24 12:42:14;;;;;;;3.50;1.90;;;15.30;90.60;;;;;;5081854;28;20090;-69
2021/12/24 12:44:46;;;;;;;2.78;2.03;;;15.30;90.40;;;;;;5081731;28;20044;-69
2021/12/24 12:47:21;;;;;;;3.80;2.47;;;15.30;90.90;;;;;;5116683;28;20386;-69
2021/12/24 12:50:10;;;;;;;5.82;2.67;;;15.40;91.30;;;;;;5098294;28;20043;-68
2021/12/24 12:52:40;;;;;;;3.67;2.30;;;15.40;90.90;;;;;;5116588;28;20044;-68
2021/12/24 12:55:27;;;;;;;3.03;2.30;;;15.40;91.20;;;;;;5065317;28;20047;-68
2021/12/24 12:58:22;;;;;;;3.50;3.00;;;15.40;91.40;;;;;;5098594;28;20035;-68
2021/12/24 13:01:13;;;;;;;3.72;2.83;;;15.50;91.40;;;;;;5098501;28;20051;-69
2021/12/24 13:03:55;;;;;;;3.25;2.20;;;15.50;91.30;;;;;;5081400;28;20048;-68
2021/12/24 13:06:49;;;;;;;4.18;2.45;;;15.30;91.30;;;;;;5081232;28;20489;-69
2021/12/24 13:09:32;;;;;;;5.35;3.17;;;15.10;91.70;;;;;;5098022;28;20367;-70
2021/12/24 13:12:02;;;;;;;5.05;3.38;;;15.00;91.50;;;;;;5098074;28;20497;-68
2021/12/24 13:14:32;;;;;;;5.90;3.05;;;15.00;91.30;;;;;;5081036;28;20040;-68
2021/12/24 13:17:16;;;;;;;3.92;3.17;;;15.00;91.50;;;;;;5098115;28;20040;-68
2021/12/24 13:24:59;;;;;;;4.63;3.03;;;14.90;91.80;;;;;;5081089;28;20443;-68
2021/12/24 13:27:33;;;;;;;4.93;3.75;;;14.90;91.70;;;;;;5080903;28;20048;-68
2021/12/24 13:30:21;;;;;;;5.85;4.38;;;14.90;91.90;;;;;;5080735;28;20130;-68
2021/12/24 13:32:51;;;;;;;5.47;4.05;;;14.80;91.80;;;;;;5080721;28;20043;-68
2021/12/24 13:35:22;;;;;;;5.57;4.20;;;14.90;91.90;;;;;;5115738;28;20044;-68
2021/12/24 13:37:53;;;;;;;7.07;4.75;;;14.90;91.70;;;;;;5081011;28;20494;-68
2021/12/24 13:40:24;;;;;;;7.25;3.92;;;15.00;91.90;;;;;;5079632;28;20138;-68
2021/12/24 13:42:56;;;;;;;5.47;3.55;;;15.00;91.90;;;;;;5097348;28;20036;-67
2021/12/24 13:45:26;;;;;;;4.78;3.67;;;15.10;91.60;;;;;;5097537;28;20042;-67
2021/12/24 13:48:07;;;;;;;5.13;3.67;;;15.20;91.60;;;;;;5097537;28;20067;-68
2021/12/24 13:56:25;;;;;;;3.20;2.70;;;14.90;92.10;;;;;;5096795;28;20046;-68
2021/12/24 13:58:56;;;;;;;5.50;3.60;;;14.80;92.60;;;;;;5114694;28;20032;-68
2021/12/24 14:01:29;;;;;;;5.97;3.80;;;14.70;92.80;;;;;;5097012;28;20078;-68
2021/12/24 14:03:59;;;;;;;5.10;3.83;;;14.70;92.80;;;;;;5114992;28;20139;-68
2021/12/24 14:06:39;;;;;;;4.53;3.20;;;14.70;93.00;;;;;;5063697;28;20511;-68
2021/12/24 14:09:17;;;;;;;5.72;4.13;;;14.60;92.90;;;;;;5096962;28;20559;-69
2021/12/24 14:11:47;;;;;;;5.38;4.18;;;14.60;93.00;;;;;;5115087;28;20065;-70
2021/12/24 14:14:21;;;;;;;5.40;3.72;;;14.50;93.00;;;;;;5096883;28;20039;-70
2021/12/24 14:19:36;;;;;;;5.55;4.20;;;14.40;92.90;;;;;;5114881;28;20043;-68
2021/12/24 14:22:13;;;;;;;7.47;3.90;;;14.40;93.20;;;;;;5096988;28;20486;-68
2021/12/24 14:24:57;;;;;;;12.65;4.38;;;14.40;93.30;;;;;;5096673;28;20046;-69
2021/12/24 14:27:28;;;;;;;5.43;3.70;;;14.40;93.00;;;;;;5080024;28;20047;-69
2021/12/24 14:30:09;;;;;;;5.78;4.75;;;14.30;92.90;;;;;;5114742;28;20054;-69
2021/12/24 14:32:42;;;;;;;5.47;3.72;;;14.30;93.00;;;;;;5080034;28;20036;-69
2021/12/24 14:35:20;;;;;;;5.90;4.00;;;14.20;93.10;;;;;;5096338;28;20093;-69
2021/12/24 14:38:06;;;;;;;8.85;4.93;;;14.20;93.20;;;;;;5079698;28;20482;-68
2021/12/24 14:40:36;;;;;;;7.95;4.97;;;14.20;93.30;;;;;;5096613;28;20134;-70
2021/12/24 14:43:15;;;;;;;7.10;4.20;;;14.10;93.60;;;;;;5096376;28;20039;-69
2021/12/24 14:45:48;;;;;;;6.55;5.43;;;14.10;93.80;;;;;;5114465;28;20050;-70
2021/12/24 14:48:20;;;;;;;7.68;5.28;;;14.10;93.60;;;;;;5079675;28;20039;-70
2021/12/24 14:51:03;;;;;;;8.73;5.88;;;14.10;93.80;;;;;;5096199;28;20063;-69
2021/12/24 14:53:42;;;;;;;7.22;5.47;;;14.10;93.60;;;;;;5095757;28;20502;-69
2021/12/24 14:56:21;;;;;;;5.95;4.80;;;14.00;93.70;;;;;;5062629;28;20097;-68
2021/12/24 14:58:48;;;;;;;13.52;6.00;;;13.90;93.80;;;;;;5079603;28;20545;-69
2021/12/24 15:01:25;;;;;;;10.05;5.70;;;14.00;94.30;;;;;;5113919;28;20134;-65
2021/12/24 15:03:54;;;;;;;24.38;9.68;;;14.00;94.20;;;;;;5095861;28;20394;-64
2021/12/24 15:06:33;;;;;;;9.90;5.70;;;14.00;94.10;;;;;;5096223;28;20499;-65